Time;durP1;ratioP1;P1;durP2;ratioP2;P2;SDS_P1;SDS_P2;PMS_P1;PMS_P2;Temp;Humidity;BMP_temperature;BMP_pressure;BME280_temperature;BME280_humidity;BME280_pressure;Samples;Min_cycle;Max_cycle;Signal;HPM_P1;HPM_P2
2024/02/07 00:01:07;;;;;;;8.97;1.80;;;;;;;;;;5038869;28;20213;-75
2024/02/07 00:03:32;;;;;;;10.73;1.27;;;;;;;;;;5024987;28;20264;-75
2024/02/07 00:05:58;;;;;;;7.37;1.00;;;;;;;;;;5027759;28;20792;-75
2024/02/07 00:08:23;;;;;;;9.37;1.20;;;;;;;;;;5026109;28;20606;-75
2024/02/07 00:10:49;;;;;;;7.03;0.83;;;;;;;;;;5027392;28;20214;-76
2024/02/07 00:13:14;;;;;;;10.80;1.03;;;;;;;;;;5041953;28;20637;-75
2024/02/07 00:15:40;;;;;;;7.87;0.83;;;;;;;;;;5039095;28;20194;-76
2024/02/07 00:18:05;;;;;;;4.07;1.00;;;;;;;;;;5018114;28;20728;-75
2024/02/07 00:20:31;;;;;;;7.93;0.83;;;;;;;;;;5031845;28;20513;-75
2024/02/07 00:22:56;;;;;;;9.87;1.30;;;;;;;;;;5032867;28;20524;-75
2024/02/07 00:25:22;;;;;;;7.87;0.90;;;;;;;;;;5037301;28;20652;-76
2024/02/07 00:27:47;;;;;;;10.57;1.37;;;;;;;;;;5032948;28;20289;-76
2024/02/07 00:30:13;;;;;;;10.80;1.40;;;;;;;;;;5030193;28;20272;-76
2024/02/07 00:32:40;;;;;;;11.37;1.23;;;;;;;;;;5037652;28;20197;-76
2024/02/07 00:35:07;;;;;;;8.00;0.70;;;;;;;;;;5048951;28;20206;-76
2024/02/07 00:37:32;;;;;;;8.17;0.80;;;;;;;;;;5043582;28;20692;-76
2024/02/07 00:39:58;;;;;;;9.43;0.83;;;;;;;;;;5039477;28;20224;-76
2024/02/07 00:42:23;;;;;;;6.67;1.20;;;;;;;;;;5033448;28;20189;-76
2024/02/07 00:44:49;;;;;;;13.00;0.90;;;;;;;;;;5051535;28;20269;-76
2024/02/07 00:47:14;;;;;;;8.67;1.03;;;;;;;;;;5036104;28;20389;-76
2024/02/07 00:49:40;;;;;;;4.37;0.70;;;;;;;;;;5044727;28;20661;-76
2024/02/07 00:52:05;;;;;;;8.07;0.83;;;;;;;;;;5036414;28;20212;-76
2024/02/07 00:54:31;;;;;;;9.63;0.87;;;;;;;;;;5033776;28;20189;-76
2024/02/07 00:56:56;;;;;;;5.40;0.80;;;;;;;;;;5030665;28;20265;-76
2024/02/07 00:59:22;;;;;;;7.67;0.87;;;;;;;;;;5017745;28;20645;-76
2024/02/07 01:01:47;;;;;;;11.23;1.17;;;;;;;;;;5049024;28;20209;-75
2024/02/07 01:04:13;;;;;;;10.90;1.00;;;;;;;;;;5043547;28;20298;-76
2024/02/07 01:06:39;;;;;;;9.53;0.70;;;;;;;;;;5049715;28;20344;-75
2024/02/07 01:09:05;;;;;;;12.37;1.00;;;;;;;;;;5050531;28;20503;-76
2024/02/07 01:11:30;;;;;;;7.07;0.73;;;;;;;;;;5032575;28;20182;-76
2024/02/07 01:13:56;;;;;;;5.87;0.73;;;;;;;;;;5030260;28;20194;-76
2024/02/07 01:16:22;;;;;;;8.53;1.00;;;;;;;;;;5013923;28;20630;-75
2024/02/07 01:18:47;;;;;;;7.57;1.00;;;;;;;;;;5019490;28;20233;-75
2024/02/07 01:21:13;;;;;;;6.63;1.00;;;;;;;;;;5030404;28;20624;-76
2024/02/07 01:23:44;;;;;;;7.93;1.50;;;;;;;;;;5037154;28;20177;-76
2024/02/07 01:26:11;;;;;;;8.17;0.90;;;;;;;;;;5031990;28;20197;-75
2024/02/07 01:28:36;;;;;;;7.53;0.80;;;;;;;;;;5039510;28;20182;-76
2024/02/07 01:31:02;;;;;;;9.60;1.10;;;;;;;;;;5018925;28;20367;-76
2024/02/07 01:33:27;;;;;;;8.20;0.87;;;;;;;;;;5045055;28;20262;-75
2024/02/07 01:35:54;;;;;;;7.63;0.70;;;;;;;;;;5035255;28;20194;-75
2024/02/07 01:38:19;;;;;;;10.37;1.00;;;;;;;;;;5042287;28;20190;-75
2024/02/07 01:40:48;;;;;;;5.77;0.67;;;;;;;;;;5032092;28;20282;-75
2024/02/07 01:43:15;;;;;;;9.30;0.83;;;;;;;;;;5041367;28;20186;-75
2024/02/07 01:45:41;;;;;;;9.67;1.30;;;;;;;;;;5043463;28;20200;-75
2024/02/07 01:48:08;;;;;;;8.17;1.00;;;;;;;;;;5039531;28;20194;-75
2024/02/07 01:50:38;;;;;;;7.80;1.30;;;;;;;;;;5049570;28;20653;-75
2024/02/07 01:53:06;;;;;;;10.17;1.07;;;;;;;;;;5018448;28;20186;-75
2024/02/07 01:55:32;;;;;;;7.43;1.03;;;;;;;;;;5029675;28;20528;-76
2024/02/07 01:58:00;;;;;;;10.83;1.27;;;;;;;;;;5056942;28;20193;-76
2024/02/07 02:00:26;;;;;;;7.17;0.93;;;;;;;;;;5050597;28;20549;-75
2024/02/07 02:02:52;;;;;;;8.37;0.90;;;;;;;;;;5048296;28;20495;-75
2024/02/07 02:05:18;;;;;;;6.40;0.90;;;;;;;;;;5038307;28;20194;-75
2024/02/07 02:07:45;;;;;;;6.13;0.57;;;;;;;;;;5033067;28;20217;-75
2024/02/07 02:10:11;;;;;;;6.77;0.80;;;;;;;;;;5024237;28;20269;-76
2024/02/07 02:12:38;;;;;;;9.30;1.00;;;;;;;;;;5028635;28;20545;-75
2024/02/07 02:15:05;;;;;;;7.73;1.43;;;;;;;;;;5042503;28;20625;-75
2024/02/07 02:17:31;;;;;;;7.13;1.17;;;;;;;;;;5045500;28;20315;-75
2024/02/07 02:19:57;;;;;;;5.47;0.67;;;;;;;;;;5038526;28;20305;-75
2024/02/07 02:22:37;;;;;;;6.80;0.80;;;;;;;;;;5031056;28;20189;-75
2024/02/07 02:25:24;;;;;;;11.50;1.13;;;;;;;;;;5026980;28;20192;-75
2024/02/07 02:28:18;;;;;;;5.70;0.57;;;;;;;;;;5037743;28;20194;-75
2024/02/07 02:30:55;;;;;;;7.90;0.57;;;;;;;;;;5024464;28;20193;-75
2024/02/07 02:33:22;;;;;;;7.80;0.63;;;;;;;;;;5027938;28;20190;-75
2024/02/07 02:35:48;;;;;;;7.97;0.67;;;;;;;;;;5020007;28;20232;-75
2024/02/07 02:38:15;;;;;;;9.53;0.87;;;;;;;;;;5048143;28;20275;-75
2024/02/07 02:40:40;;;;;;;6.80;1.10;;;;;;;;;;5037337;28;20205;-75
2024/02/07 02:43:06;;;;;;;9.30;0.93;;;;;;;;;;5030322;28;20586;-75
2024/02/07 02:45:32;;;;;;;5.13;0.77;;;;;;;;;;5050356;28;20723;-75
2024/02/07 02:47:58;;;;;;;9.47;1.00;;;;;;;;;;5043140;28;20632;-75
2024/02/07 02:50:26;;;;;;;10.63;1.07;;;;;;;;;;5030886;28;20205;-75
2024/02/07 02:52:52;;;;;;;4.63;0.80;;;;;;;;;;5034601;28;20569;-75
2024/02/07 02:55:17;;;;;;;8.70;0.63;;;;;;;;;;5014384;28;20189;-75
2024/02/07 02:57:45;;;;;;;9.73;1.17;;;;;;;;;;5027901;28;20194;-75
2024/02/07 03:00:14;;;;;;;2.97;0.80;;;;;;;;;;5034753;28;20611;-75
2024/02/07 03:02:43;;;;;;;7.57;1.03;;;;;;;;;;5035900;28;20221;-76
2024/02/07 03:05:26;;;;;;;9.67;1.27;;;;;;;;;;5031136;28;20202;-75
2024/02/07 03:08:04;;;;;;;7.17;1.10;;;;;;;;;;5038284;28;20583;-75
2024/02/07 03:10:30;;;;;;;8.73;1.00;;;;;;;;;;5018854;28;20185;-75
2024/02/07 03:12:56;;;;;;;6.43;1.90;;;;;;;;;;5017479;28;20518;-75
2024/02/07 03:15:21;;;;;;;10.33;0.70;;;;;;;;;;5043994;28;20194;-75
2024/02/07 03:17:47;;;;;;;6.50;0.80;;;;;;;;;;5028910;28;20229;-75
2024/02/07 03:20:13;;;;;;;12.20;0.77;;;;;;;;;;5036659;28;20214;-75
2024/02/07 03:22:38;;;;;;;9.23;1.20;;;;;;;;;;5029310;28;20198;-75
2024/02/07 03:25:04;;;;;;;12.17;1.10;;;;;;;;;;5027043;28;20186;-75
2024/02/07 03:27:30;;;;;;;7.40;0.97;;;;;;;;;;5034172;28;20576;-75
2024/02/07 03:29:56;;;;;;;9.70;1.37;;;;;;;;;;5021544;28;20198;-75
2024/02/07 03:32:24;;;;;;;11.50;0.83;;;;;;;;;;5041491;28;20200;-75
2024/02/07 03:34:50;;;;;;;7.30;0.80;;;;;;;;;;5041820;28;20323;-75
2024/02/07 03:37:16;;;;;;;9.13;1.17;;;;;;;;;;5043103;28;20603;-75
2024/02/07 03:39:42;;;;;;;12.77;1.23;;;;;;;;;;5037334;28;20189;-75
2024/02/07 03:42:08;;;;;;;7.20;0.90;;;;;;;;;;5051554;28;20209;-75
2024/02/07 03:44:34;;;;;;;14.70;1.37;;;;;;;;;;5044884;28;20205;-74
2024/02/07 03:46:59;;;;;;;11.10;1.60;;;;;;;;;;5046330;28;20192;-74
2024/02/07 03:49:25;;;;;;;7.10;0.80;;;;;;;;;;5037814;28;20209;-74
2024/02/07 03:51:52;;;;;;;6.97;0.80;;;;;;;;;;5050593;28;20185;-74
2024/02/07 03:54:18;;;;;;;9.73;1.50;;;;;;;;;;5021707;28;20292;-74
2024/02/07 03:56:44;;;;;;;6.80;0.73;;;;;;;;;;5031691;28;20186;-75
2024/02/07 03:59:09;;;;;;;6.90;1.20;;;;;;;;;;5031463;28;20244;-74
2024/02/07 04:01:35;;;;;;;8.67;1.03;;;;;;;;;;5040071;28;20228;-75
2024/02/07 04:04:01;;;;;;;8.37;0.73;;;;;;;;;;5020827;28;20177;-75
2024/02/07 04:06:28;;;;;;;9.73;0.83;;;;;;;;;;5041021;28;20190;-75
2024/02/07 04:08:55;;;;;;;10.57;0.90;;;;;;;;;;5042731;28;20523;-75
2024/02/07 05:16:23;;;;;;;13.43;1.40;;;;;;;;;;5042715;28;20194;-74
2024/02/07 05:18:48;;;;;;;12.43;1.47;;;;;;;;;;5012360;28;20383;-74
2024/02/07 05:21:14;;;;;;;8.40;1.30;;;;;;;;;;5037877;28;20308;-74
2024/02/07 05:23:40;;;;;;;7.17;1.20;;;;;;;;;;5043491;28;20215;-75
2024/02/07 05:26:06;;;;;;;11.53;1.40;;;;;;;;;;5043785;28;20221;-75
2024/02/07 05:28:32;;;;;;;8.50;1.17;;;;;;;;;;5039384;28;20194;-75
2024/02/07 05:30:57;;;;;;;11.80;1.30;;;;;;;;;;5041877;28;20246;-75
2024/02/07 05:33:22;;;;;;;14.30;1.60;;;;;;;;;;5040439;28;20193;-75
2024/02/07 05:35:48;;;;;;;7.63;1.00;;;;;;;;;;5056676;28;20197;-75
2024/02/07 05:38:13;;;;;;;10.70;1.57;;;;;;;;;;5040255;28;20200;-75
2024/02/07 05:40:39;;;;;;;15.97;1.50;;;;;;;;;;5036999;28;20591;-75
2024/02/07 05:43:05;;;;;;;11.07;1.70;;;;;;;;;;5035881;28;20244;-75
2024/02/07 05:45:31;;;;;;;11.83;1.30;;;;;;;;;;5041397;28;20194;-75
2024/02/07 05:47:56;;;;;;;10.10;1.43;;;;;;;;;;5033843;28;20197;-75
2024/02/07 05:50:22;;;;;;;10.17;1.53;;;;;;;;;;5046666;28;20244;-74
2024/02/07 05:52:47;;;;;;;13.60;1.50;;;;;;;;;;5035501;28;20194;-76
2024/02/07 05:55:13;;;;;;;15.27;1.77;;;;;;;;;;5039312;28;20197;-75
2024/02/07 05:57:38;;;;;;;14.77;1.37;;;;;;;;;;5024010;28;20200;-74
2024/02/07 06:00:06;;;;;;;20.27;1.90;;;;;;;;;;5041345;28;20189;-75
2024/02/07 06:02:32;;;;;;;8.10;1.27;;;;;;;;;;5025352;28;20186;-74
2024/02/07 06:05:02;;;;;;;10.43;1.37;;;;;;;;;;5047221;28;20189;-76
2024/02/07 06:07:31;;;;;;;12.97;2.10;;;;;;;;;;5042973;28;20196;-74
2024/02/07 06:09:57;;;;;;;9.83;1.63;;;;;;;;;;5043981;28;20193;-74
2024/02/07 06:12:23;;;;;;;10.93;1.43;;;;;;;;;;5040860;28;20197;-74
2024/02/07 06:14:48;;;;;;;11.57;1.93;;;;;;;;;;5030650;28;20212;-75
2024/02/07 06:17:13;;;;;;;13.57;1.43;;;;;;;;;;5033578;28;20226;-75
2024/02/07 06:19:39;;;;;;;12.50;2.13;;;;;;;;;;5024523;28;20228;-75
2024/02/07 06:22:05;;;;;;;14.13;1.53;;;;;;;;;;5016351;28;20206;-75
2024/02/07 06:24:31;;;;;;;16.53;1.67;;;;;;;;;;5041583;28;20201;-75
2024/02/07 06:26:57;;;;;;;14.73;1.70;;;;;;;;;;5039962;28;20185;-75
2024/02/07 06:29:23;;;;;;;18.40;2.10;;;;;;;;;;5041454;28;20553;-75
2024/02/07 06:31:48;;;;;;;9.37;1.80;;;;;;;;;;5045235;28;20281;-75
2024/02/07 06:34:14;;;;;;;8.73;1.40;;;;;;;;;;5046459;28;20448;-75
2024/02/07 06:36:39;;;;;;;16.53;1.93;;;;;;;;;;5052150;28;20192;-75
2024/02/07 06:39:05;;;;;;;13.80;1.90;;;;;;;;;;5039813;28;20190;-75
2024/02/07 06:41:30;;;;;;;11.03;1.77;;;;;;;;;;5033741;28;20225;-75
2024/02/07 06:43:56;;;;;;;19.33;2.57;;;;;;;;;;5042284;28;20197;-75
2024/02/07 06:46:21;;;;;;;14.80;1.73;;;;;;;;;;5039371;28;20213;-75
2024/02/07 06:48:46;;;;;;;14.47;1.67;;;;;;;;;;5032216;28;20289;-74
2024/02/07 06:51:12;;;;;;;11.57;1.90;;;;;;;;;;5030463;28;20193;-74
2024/02/07 06:53:37;;;;;;;14.60;1.87;;;;;;;;;;5019227;28;20178;-74
2024/02/07 06:56:03;;;;;;;14.73;1.80;;;;;;;;;;5039547;28;20200;-75
2024/02/07 06:58:32;;;;;;;13.93;1.83;;;;;;;;;;5034482;28;20567;-76
2024/02/07 07:00:58;;;;;;;15.07;1.90;;;;;;;;;;5039599;28;20208;-75
2024/02/07 07:03:27;;;;;;;11.33;1.97;;;;;;;;;;5038802;28;20185;-75
2024/02/07 07:05:53;;;;;;;11.67;1.53;;;;;;;;;;5039234;28;20444;-75
2024/02/07 07:08:18;;;;;;;15.87;2.20;;;;;;;;;;5038094;28;20193;-75
2024/02/07 07:10:44;;;;;;;11.60;1.70;;;;;;;;;;5039982;28;20189;-75
2024/02/07 07:13:09;;;;;;;12.93;1.80;;;;;;;;;;5046056;28;20270;-75
2024/02/07 07:15:35;;;;;;;9.13;2.20;;;;;;;;;;5046221;28;20193;-75
2024/02/07 07:18:00;;;;;;;14.63;2.00;;;;;;;;;;5033809;28;20665;-75
2024/02/07 07:20:30;;;;;;;14.93;2.20;;;;;;;;;;5039156;28;20260;-75
2024/02/07 07:22:59;;;;;;;18.20;2.10;;;;;;;;;;5031818;28;20206;-75
2024/02/07 07:25:24;;;;;;;16.03;1.80;;;;;;;;;;5040052;28;20212;-75
2024/02/07 07:27:49;;;;;;;15.40;2.30;;;;;;;;;;5043749;28;20627;-75
2024/02/07 07:30:15;;;;;;;12.97;2.13;;;;;;;;;;5036646;28;20269;-75
2024/02/07 07:32:40;;;;;;;20.63;2.60;;;;;;;;;;5027379;28;20185;-75
2024/02/07 07:35:06;;;;;;;27.37;2.37;;;;;;;;;;5036737;28;20604;-75
2024/02/07 07:37:32;;;;;;;17.73;2.67;;;;;;;;;;5029193;28;20190;-74
2024/02/07 07:39:57;;;;;;;15.30;2.63;;;;;;;;;;5039039;28;20190;-76
2024/02/07 07:42:23;;;;;;;16.10;2.27;;;;;;;;;;5044102;28;20201;-75
2024/02/07 07:44:48;;;;;;;18.07;2.73;;;;;;;;;;5036836;28;20198;-75
2024/02/07 07:47:14;;;;;;;17.77;2.80;;;;;;;;;;5037405;28;20199;-74
2024/02/07 07:49:41;;;;;;;15.10;1.90;;;;;;;;;;5043244;28;20221;-75
2024/02/07 07:52:06;;;;;;;19.50;2.73;;;;;;;;;;5032618;28;20197;-76
2024/02/07 07:54:32;;;;;;;26.17;2.60;;;;;;;;;;5039362;28;20575;-75
2024/02/07 07:56:59;;;;;;;17.77;2.90;;;;;;;;;;5029823;28;20516;-73
2024/02/07 07:59:24;;;;;;;27.23;2.47;;;;;;;;;;5026876;28;20194;-73
2024/02/07 08:01:57;;;;;;;24.03;2.83;;;;;;;;;;5034763;28;20209;-73
2024/02/07 08:04:23;;;;;;;24.20;3.17;;;;;;;;;;5027906;28;20194;-73
2024/02/07 08:06:48;;;;;;;22.70;3.23;;;;;;;;;;5019547;28;20692;-74
2024/02/07 08:09:14;;;;;;;22.97;2.80;;;;;;;;;;5014394;28;20634;-74
2024/02/07 08:11:40;;;;;;;22.57;3.00;;;;;;;;;;5026723;28;20190;-73
2024/02/07 08:14:06;;;;;;;22.10;2.73;;;;;;;;;;5028207;28;20247;-73
2024/02/07 08:16:31;;;;;;;26.43;3.90;;;;;;;;;;5024952;28;20252;-74
2024/02/07 08:18:57;;;;;;;28.47;3.57;;;;;;;;;;5029153;28;20277;-73
2024/02/07 08:21:22;;;;;;;30.50;3.53;;;;;;;;;;5029336;28;20233;-74
2024/02/07 08:23:47;;;;;;;21.73;3.37;;;;;;;;;;5042575;28;20193;-74
2024/02/07 08:26:13;;;;;;;20.20;2.57;;;;;;;;;;5031152;28;20210;-73
2024/02/07 08:28:38;;;;;;;26.63;3.40;;;;;;;;;;5034717;28;20232;-74
2024/02/07 08:31:04;;;;;;;18.77;2.77;;;;;;;;;;5025836;28;20672;-74
2024/02/07 08:33:29;;;;;;;20.47;3.20;;;;;;;;;;5032214;28;20189;-73
2024/02/07 08:35:54;;;;;;;19.93;3.00;;;;;;;;;;5045626;28;20834;-73
2024/02/07 08:38:20;;;;;;;23.43;2.87;;;;;;;;;;5047100;28;20259;-73
2024/02/07 08:40:45;;;;;;;22.80;2.73;;;;;;;;;;5026065;28;20259;-73
2024/02/07 08:43:11;;;;;;;23.00;2.30;;;;;;;;;;5045105;28;20189;-73
2024/02/07 08:45:37;;;;;;;26.53;3.53;;;;;;;;;;5021332;28;20181;-73
2024/02/07 08:48:04;;;;;;;27.33;4.50;;;;;;;;;;5038423;28;20204;-73
2024/02/07 08:50:30;;;;;;;18.57;2.70;;;;;;;;;;5042099;28;20186;-75
2024/02/07 08:52:55;;;;;;;21.90;3.47;;;;;;;;;;5035232;28;20825;-73
2024/02/07 08:55:20;;;;;;;20.80;3.53;;;;;;;;;;5042794;28;20213;-73
2024/02/07 08:57:46;;;;;;;23.83;3.07;;;;;;;;;;5032772;28;20197;-74
2024/02/07 09:00:12;;;;;;;22.47;3.37;;;;;;;;;;5035510;28;20194;-74
2024/02/07 09:02:37;;;;;;;15.33;2.67;;;;;;;;;;5042116;28;20182;-74
2024/02/07 09:05:05;;;;;;;21.10;3.07;;;;;;;;;;5041966;28;20200;-74
2024/02/07 09:07:31;;;;;;;18.67;3.20;;;;;;;;;;5032402;28;20185;-74
2024/02/07 09:09:57;;;;;;;19.00;3.10;;;;;;;;;;5044531;28;20190;-74
2024/02/07 09:12:23;;;;;;;20.77;3.08;;;;;;;;;;5030959;28;20205;-74
2024/02/07 09:14:48;;;;;;;17.67;3.37;;;;;;;;;;5046922;28;20587;-74
2024/02/07 09:17:14;;;;;;;24.47;3.20;;;;;;;;;;5042478;28;20588;-74
2024/02/07 09:19:39;;;;;;;24.30;3.67;;;;;;;;;;5057059;28;20286;-74
2024/02/07 09:22:05;;;;;;;20.37;2.93;;;;;;;;;;5030301;28;20226;-74
2024/02/07 09:24:30;;;;;;;19.13;3.20;;;;;;;;;;5035986;28;20320;-74
2024/02/07 09:26:57;;;;;;;17.73;2.97;;;;;;;;;;5047174;28;20182;-74
2024/02/07 09:29:23;;;;;;;24.20;3.13;;;;;;;;;;5036914;28;20220;-74
2024/02/07 09:31:48;;;;;;;20.70;3.60;;;;;;;;;;5023638;28;20626;-74
2024/02/07 09:34:14;;;;;;;24.17;3.43;;;;;;;;;;5048241;28;20280;-75
2024/02/07 09:36:40;;;;;;;22.50;3.43;;;;;;;;;;5045527;28;20258;-74
2024/02/07 09:39:06;;;;;;;20.73;3.20;;;;;;;;;;5041183;28;20217;-75
2024/02/07 09:41:38;;;;;;;19.77;3.07;;;;;;;;;;5037552;28;20248;-74
2024/02/07 09:44:04;;;;;;;25.50;3.33;;;;;;;;;;5036292;28;20202;-74
2024/02/07 09:46:37;;;;;;;16.63;2.93;;;;;;;;;;5035372;28;20269;-74
2024/02/07 09:49:06;;;;;;;22.93;3.17;;;;;;;;;;5043494;28;20597;-74
2024/02/07 09:51:32;;;;;;;24.30;4.40;;;;;;;;;;5044481;28;20189;-74
2024/02/07 09:53:59;;;;;;;29.23;3.60;;;;;;;;;;5045440;28;20200;-74
2024/02/07 09:56:25;;;;;;;23.70;3.00;;;;;;;;;;5046051;28;20216;-74
2024/02/07 09:58:52;;;;;;;16.87;3.70;;;;;;;;;;5039394;28;20190;-75
2024/02/07 10:01:18;;;;;;;20.33;2.97;;;;;;;;;;5034270;28;20241;-75
2024/02/07 10:03:46;;;;;;;22.80;4.13;;;;;;;;;;5039422;28;20194;-74
2024/02/07 10:06:13;;;;;;;20.47;2.70;;;;;;;;;;5034933;28;20582;-74
2024/02/07 10:08:39;;;;;;;21.23;3.80;;;;;;;;;;5040734;28;20280;-74
2024/02/07 10:11:07;;;;;;;18.27;3.00;;;;;;;;;;5031953;28;20185;-74
2024/02/07 10:13:32;;;;;;;19.67;3.17;;;;;;;;;;5041471;28;20281;-74
2024/02/07 10:15:58;;;;;;;20.77;3.03;;;;;;;;;;5054656;28;20287;-74
2024/02/07 10:18:23;;;;;;;15.67;2.47;;;;;;;;;;5034845;28;20744;-74
2024/02/07 10:20:53;;;;;;;19.27;2.90;;;;;;;;;;5038903;28;20246;-74
2024/02/07 10:23:19;;;;;;;19.70;2.80;;;;;;;;;;5039532;28;20190;-74
2024/02/07 10:25:49;;;;;;;19.53;2.97;;;;;;;;;;5035416;28;20649;-74
2024/02/07 10:28:15;;;;;;;21.88;3.28;;;;;;;;;;5031399;28;20189;-74
2024/02/07 10:30:40;;;;;;;16.60;2.63;;;;;;;;;;5048719;28;20625;-74
2024/02/07 10:33:06;;;;;;;20.63;3.03;;;;;;;;;;5039344;28;20193;-74
2024/02/07 10:35:31;;;;;;;18.07;3.00;;;;;;;;;;5047496;28;20205;-74
2024/02/07 10:37:57;;;;;;;15.70;2.37;;;;;;;;;;5047917;28;20186;-75
2024/02/07 10:40:24;;;;;;;15.97;2.17;;;;;;;;;;5040836;28;20346;-74
2024/02/07 10:42:57;;;;;;;18.27;3.63;;;;;;;;;;5031214;28;20305;-74
2024/02/07 10:45:23;;;;;;;19.33;2.60;;;;;;;;;;5034657;28;20617;-74
2024/02/07 10:47:52;;;;;;;25.07;3.27;;;;;;;;;;5037005;28;20196;-74
2024/02/07 10:50:20;;;;;;;19.13;2.63;;;;;;;;;;5044103;28;20201;-74
2024/02/07 10:52:47;;;;;;;17.33;2.57;;;;;;;;;;5044204;28;20190;-74
2024/02/07 10:55:14;;;;;;;14.43;2.10;;;;;;;;;;5041417;28;20323;-74
2024/02/07 10:57:44;;;;;;;20.02;2.45;;;;;;;;;;5042120;28;20666;-74
2024/02/07 11:00:11;;;;;;;15.27;2.88;;;;;;;;;;5029479;28;20733;-74
2024/02/07 11:02:36;;;;;;;24.93;2.30;;;;;;;;;;5026642;28;20228;-74
2024/02/07 11:05:02;;;;;;;17.85;2.78;;;;;;;;;;5037997;28;20642;-74
2024/02/07 11:07:27;;;;;;;17.53;1.97;;;;;;;;;;5045165;28;20190;-74
2024/02/07 11:09:54;;;;;;;14.33;2.30;;;;;;;;;;5046532;28;20185;-74
2024/02/07 11:12:19;;;;;;;14.13;2.20;;;;;;;;;;5037317;28;20534;-74
2024/02/07 11:14:47;;;;;;;21.00;3.23;;;;;;;;;;5039123;28;20186;-74
2024/02/07 11:17:16;;;;;;;14.00;1.93;;;;;;;;;;5028765;28;20247;-74
2024/02/07 11:19:43;;;;;;;12.53;2.23;;;;;;;;;;5041266;28;20276;-75
2024/02/07 11:22:15;;;;;;;15.53;2.13;;;;;;;;;;5013078;28;20690;-74
2024/02/07 11:24:42;;;;;;;16.90;2.20;;;;;;;;;;5038248;28;20189;-74
2024/02/07 11:27:10;;;;;;;13.00;1.70;;;;;;;;;;5037175;28;20516;-74
2024/02/07 11:29:35;;;;;;;16.53;2.00;;;;;;;;;;5025111;28;20182;-74
2024/02/07 11:32:03;;;;;;;17.80;2.33;;;;;;;;;;5017183;28;20174;-74
2024/02/07 11:34:29;;;;;;;21.50;2.23;;;;;;;;;;5045760;28;20281;-74
2024/02/07 11:36:55;;;;;;;14.20;2.43;;;;;;;;;;5045194;28;20315;-73
2024/02/07 11:39:21;;;;;;;18.17;2.10;;;;;;;;;;5046402;28;20315;-73
2024/02/07 11:41:47;;;;;;;17.13;1.93;;;;;;;;;;5034836;28;20305;-73
2024/02/07 11:44:15;;;;;;;11.23;2.57;;;;;;;;;;5034660;28;20185;-73
2024/02/07 11:46:50;;;;;;;12.73;2.10;;;;;;;;;;5042694;28;20233;-73
2024/02/07 11:49:18;;;;;;;11.97;2.33;;;;;;;;;;5027771;28;20190;-73
2024/02/07 11:51:43;;;;;;;13.27;2.50;;;;;;;;;;5024169;28;20185;-74
2024/02/07 11:54:09;;;;;;;16.53;2.37;;;;;;;;;;5042608;28;20201;-74
2024/02/07 11:56:35;;;;;;;14.20;1.97;;;;;;;;;;5041972;28;20547;-74
2024/02/07 11:59:01;;;;;;;10.83;1.70;;;;;;;;;;5027253;28;20190;-74
2024/02/07 12:01:27;;;;;;;16.50;2.33;;;;;;;;;;5043662;28;20221;-74
2024/02/07 12:03:56;;;;;;;11.03;1.50;;;;;;;;;;5040688;28;20757;-74
2024/02/07 12:06:22;;;;;;;17.10;2.23;;;;;;;;;;5046608;28;20219;-74
2024/02/07 12:08:47;;;;;;;12.23;2.10;;;;;;;;;;5045592;28;20189;-74
2024/02/07 12:11:13;;;;;;;12.40;2.00;;;;;;;;;;5009301;28;20237;-74
2024/02/07 12:13:38;;;;;;;9.43;1.33;;;;;;;;;;5027044;28;20581;-74
2024/02/07 12:16:05;;;;;;;19.57;2.30;;;;;;;;;;5032817;28;20194;-74
2024/02/07 12:18:31;;;;;;;17.10;1.87;;;;;;;;;;5041111;28;20233;-74
2024/02/07 12:21:04;;;;;;;12.10;1.53;;;;;;;;;;5049486;28;20251;-74
2024/02/07 12:23:30;;;;;;;7.67;1.53;;;;;;;;;;5046904;28;20204;-74
2024/02/07 12:26:03;;;;;;;10.43;1.80;;;;;;;;;;5050347;28;20219;-73
2024/02/07 12:28:29;;;;;;;12.50;1.57;;;;;;;;;;5029374;28;20217;-73
2024/02/07 12:30:55;;;;;;;14.37;1.87;;;;;;;;;;5051178;28;20294;-73
2024/02/07 12:33:22;;;;;;;13.00;1.60;;;;;;;;;;5037518;28;20198;-74
2024/02/07 12:35:49;;;;;;;13.27;1.80;;;;;;;;;;5048708;28;20201;-74
2024/02/07 12:38:15;;;;;;;15.00;2.10;;;;;;;;;;5041120;28;20196;-74
2024/02/07 12:40:41;;;;;;;10.23;1.10;;;;;;;;;;5042979;28;20204;-74
2024/02/07 12:43:07;;;;;;;11.07;1.52;;;;;;;;;;5036198;28;20664;-73
2024/02/07 12:45:32;;;;;;;11.37;1.23;;;;;;;;;;5039608;28;20197;-74
2024/02/07 12:47:58;;;;;;;15.60;2.25;;;;;;;;;;5041704;28;20330;-74
2024/02/07 12:50:25;;;;;;;8.88;1.50;;;;;;;;;;5033088;28;20550;-74
2024/02/07 12:52:50;;;;;;;9.70;1.52;;;;;;;;;;5028289;28;20182;-73
2024/02/07 12:55:16;;;;;;;14.43;1.47;;;;;;;;;;5040450;28;20194;-74
2024/02/07 12:57:43;;;;;;;12.13;1.57;;;;;;;;;;5035143;28;20641;-74
2024/02/07 13:00:12;;;;;;;17.07;1.67;;;;;;;;;;5040882;28;20228;-74
2024/02/07 13:02:48;;;;;;;17.40;2.90;;;;;;;;;;5047034;28;20193;-73
2024/02/07 13:05:14;;;;;;;15.07;1.50;;;;;;;;;;5054980;28;20676;-74
2024/02/07 13:07:40;;;;;;;10.13;1.50;;;;;;;;;;5044945;28;20210;-73
2024/02/07 13:10:07;;;;;;;15.13;1.70;;;;;;;;;;5045313;28;20300;-74
2024/02/07 13:12:35;;;;;;;8.37;1.07;;;;;;;;;;5029508;28;20235;-74
2024/02/07 13:15:00;;;;;;;13.02;1.60;;;;;;;;;;5040980;28;20217;-74
2024/02/07 13:17:26;;;;;;;10.68;1.10;;;;;;;;;;5041277;28;20752;-74
2024/02/07 13:19:51;;;;;;;14.90;1.98;;;;;;;;;;5043277;28;20225;-74
2024/02/07 13:22:16;;;;;;;9.45;1.67;;;;;;;;;;5024515;28;20296;-74
2024/02/07 13:24:42;;;;;;;12.20;1.60;;;;;;;;;;5033753;28;20198;-74
2024/02/07 13:27:07;;;;;;;11.40;1.50;;;;;;;;;;5039023;28;20197;-74
2024/02/07 13:29:35;;;;;;;10.80;1.33;;;;;;;;;;5036889;28;20296;-74
2024/02/07 13:32:00;;;;;;;6.90;1.15;;;;;;;;;;5039385;28;20187;-74
2024/02/07 13:34:26;;;;;;;11.87;1.23;;;;;;;;;;5037475;28;20193;-74
2024/02/07 13:36:51;;;;;;;10.13;1.25;;;;;;;;;;5044527;28;20224;-74
2024/02/07 13:39:17;;;;;;;12.65;1.30;;;;;;;;;;5042454;28;20205;-74
2024/02/07 13:41:42;;;;;;;8.57;1.30;;;;;;;;;;5034229;28;20568;-74
2024/02/07 13:44:12;;;;;;;12.25;1.45;;;;;;;;;;5034166;28;20339;-74
2024/02/07 13:46:38;;;;;;;10.95;1.75;;;;;;;;;;5046367;28;20697;-74
2024/02/07 13:49:08;;;;;;;14.32;3.13;;;;;;;;;;5045030;28;20194;-74
2024/02/07 13:51:34;;;;;;;13.20;1.65;;;;;;;;;;5039016;28;20208;-74
2024/02/07 13:53:59;;;;;;;11.75;1.65;;;;;;;;;;5034215;28;20272;-74
2024/02/07 13:56:25;;;;;;;9.07;1.23;;;;;;;;;;5032750;28;20197;-74
2024/02/07 13:58:50;;;;;;;9.80;1.42;;;;;;;;;;5047396;28;20189;-74
2024/02/07 14:01:16;;;;;;;8.77;1.13;;;;;;;;;;5051733;28;20198;-74
2024/02/07 14:03:41;;;;;;;8.95;1.50;;;;;;;;;;5049675;28;20200;-74
2024/02/07 14:06:07;;;;;;;14.80;2.40;;;;;;;;;;5043156;28;20524;-74
2024/02/07 14:08:33;;;;;;;10.27;1.98;;;;;;;;;;5058731;28;20190;-74
2024/02/07 14:11:00;;;;;;;8.65;1.27;;;;;;;;;;5040180;28;20188;-74
2024/02/07 14:13:26;;;;;;;9.35;1.33;;;;;;;;;;5039818;28;20281;-74
2024/02/07 14:15:51;;;;;;;11.77;1.23;;;;;;;;;;5037469;28;20768;-74
2024/02/07 14:18:17;;;;;;;5.85;1.15;;;;;;;;;;5050416;28;20291;-74
2024/02/07 14:20:42;;;;;;;9.23;1.15;;;;;;;;;;5040735;28;20209;-74
2024/02/07 14:23:08;;;;;;;8.18;1.27;;;;;;;;;;5031519;28;20190;-74
2024/02/07 14:25:33;;;;;;;10.82;1.30;;;;;;;;;;5031039;28;20227;-74
2024/02/07 14:27:59;;;;;;;12.55;1.10;;;;;;;;;;5035069;28;20185;-74
2024/02/07 14:30:27;;;;;;;8.60;1.27;;;;;;;;;;5025962;28;20297;-74
2024/02/07 14:32:54;;;;;;;14.90;1.55;;;;;;;;;;5029573;28;20543;-74
2024/02/07 14:35:20;;;;;;;12.55;1.58;;;;;;;;;;5038338;28;20239;-74
2024/02/07 14:37:45;;;;;;;13.13;1.52;;;;;;;;;;5046056;28;20355;-74
2024/02/07 14:40:11;;;;;;;9.85;0.95;;;;;;;;;;5032175;28;20605;-74
2024/02/07 14:42:37;;;;;;;7.50;1.20;;;;;;;;;;5032962;28;20255;-74
2024/02/07 14:45:03;;;;;;;6.28;1.10;;;;;;;;;;5041717;28;20266;-74
2024/02/07 14:47:28;;;;;;;12.32;1.30;;;;;;;;;;5034688;28;20285;-73
2024/02/07 14:49:53;;;;;;;9.65;1.88;;;;;;;;;;5045673;28;20190;-74
2024/02/07 14:52:19;;;;;;;10.07;1.33;;;;;;;;;;5028435;28;20194;-73
2024/02/07 14:54:44;;;;;;;12.05;1.08;;;;;;;;;;5036382;28;20251;-73
2024/02/07 14:57:10;;;;;;;8.60;0.85;;;;;;;;;;5050520;28;20196;-74
2024/02/07 14:59:36;;;;;;;7.95;1.00;;;;;;;;;;5029207;28;20210;-74
2024/02/07 15:02:02;;;;;;;7.27;1.23;;;;;;;;;;5042755;28;20679;-73
2024/02/07 15:04:28;;;;;;;11.45;1.50;;;;;;;;;;5044156;28;20193;-73
2024/02/07 15:06:54;;;;;;;11.98;1.17;;;;;;;;;;5036543;28;20198;-74
2024/02/07 15:09:20;;;;;;;12.13;1.10;;;;;;;;;;5036086;28;20197;-73
2024/02/07 15:11:46;;;;;;;10.48;1.98;;;;;;;;;;5046894;28;20585;-73
2024/02/07 15:14:11;;;;;;;8.93;1.60;;;;;;;;;;5041358;28;20223;-73
2024/02/07 15:16:36;;;;;;;5.85;0.90;;;;;;;;;;5043065;28;20233;-74
2024/02/07 15:19:02;;;;;;;12.60;1.75;;;;;;;;;;5030994;28;20317;-74
2024/02/07 15:21:28;;;;;;;10.83;1.20;;;;;;;;;;5043809;28;20213;-74
2024/02/07 15:23:53;;;;;;;9.33;1.20;;;;;;;;;;5039531;28;20190;-74
2024/02/07 15:26:19;;;;;;;15.07;1.20;;;;;;;;;;5030684;28;20189;-74
2024/02/07 15:28:45;;;;;;;8.83;1.10;;;;;;;;;;5038298;28;20280;-73
2024/02/07 15:31:10;;;;;;;10.13;1.40;;;;;;;;;;5042515;28;20266;-73
2024/02/07 15:33:36;;;;;;;15.75;1.55;;;;;;;;;;5048471;28;20367;-75